sensor_id;sensor_type;location;lat;lon;timestamp;P1;P4;P2;P0;N10;N4;N25;N1;N05;TS
74572;SPS30;63071;51.526;-0.134;2022-12-29T00:01:34;4.37;4.02;3.27;2.23;17.90;17.87;17.70;16.79;13.03;0.77
74572;SPS30;63071;51.526;-0.134;2022-12-29T00:04:01;4.34;4.00;3.27;2.26;18.07;18.04;17.88;16.98;13.23;0.76
74572;SPS30;63071;51.526;-0.134;2022-12-29T00:06:27;4.45;4.13;3.43;2.46;19.68;19.64;19.49;18.64;14.71;0.75
74572;SPS30;63071;51.526;-0.134;2022-12-29T00:08:53;3.78;3.51;2.93;2.10;16.85;16.82;16.69;15.98;12.64;0.74
74572;SPS30;63071;51.526;-0.134;2022-12-29T00:11:26;3.65;3.37;2.76;1.91;15.34;15.31;15.18;14.43;11.26;0.77
74572;SPS30;63071;51.526;-0.134;2022-12-29T00:13:52;5.01;4.58;3.66;2.41;19.30;19.26;19.05;17.94;13.72;0.81
74572;SPS30;63071;51.526;-0.134;2022-12-29T00:16:37;3.94;3.60;2.87;1.88;15.05;15.01;14.85;13.97;10.65;0.82
74572;SPS30;63071;51.526;-0.134;2022-12-29T00:19:06;4.69;4.29;3.42;2.25;18.07;18.03;17.84;16.80;12.85;0.82
74572;SPS30;63071;51.526;-0.134;2022-12-29T00:21:51;4.44;4.05;3.22;2.10;16.87;16.83;16.65;15.65;11.92;0.83
74572;SPS30;63071;51.526;-0.134;2022-12-29T00:24:35;4.13;3.79;3.08;2.09;16.76;16.73;16.57;15.70;12.16;0.80
74572;SPS30;63071;51.526;-0.134;2022-12-29T00:27:20;4.46;4.09;3.31;2.24;17.94;17.90;17.73;16.78;12.97;0.79
74572;SPS30;63071;51.526;-0.134;2022-12-29T00:30:14;4.09;3.73;2.95;1.91;15.29;15.26;15.09;14.15;10.74;0.81
74572;SPS30;63071;51.526;-0.134;2022-12-29T00:33:04;4.43;4.04;3.21;2.09;16.74;16.70;16.52;15.51;11.80;0.79
74572;SPS30;63071;51.526;-0.134;2022-12-29T00:35:57;4.69;4.30;3.45;2.29;18.35;18.31;18.12;17.09;13.12;0.79
74572;SPS30;63071;51.526;-0.134;2022-12-29T00:38:51;4.46;4.10;3.35;2.30;18.44;18.40;18.23;17.31;13.47;0.77
74572;SPS30;63071;51.526;-0.134;2022-12-29T00:41:49;4.32;3.97;3.21;2.17;17.39;17.36;17.19;16.27;12.57;0.79
74572;SPS30;63071;51.526;-0.134;2022-12-29T00:44:33;4.37;4.02;3.25;2.21;17.69;17.65;17.49;16.56;12.82;0.79
74572;SPS30;63071;51.526;-0.134;2022-12-29T00:46:58;4.08;3.75;3.05;2.09;16.73;16.70;16.54;15.69;12.19;0.77
74572;SPS30;63071;51.526;-0.134;2022-12-29T00:49:28;4.30;3.93;3.14;2.06;16.48;16.45;16.27;15.31;11.69;0.79
74572;SPS30;63071;51.526;-0.134;2022-12-29T00:54:24;4.30;3.93;3.13;2.04;16.38;16.35;16.17;15.20;11.59;0.81
74572;SPS30;63071;51.526;-0.134;2022-12-29T00:56:50;4.47;4.09;3.26;2.14;17.18;17.14;16.96;15.96;12.19;0.80
74572;SPS30;63071;51.526;-0.134;2022-12-29T00:59:17;4.56;4.17;3.35;2.22;17.80;17.76;17.58;16.58;12.72;0.80
74572;SPS30;63071;51.526;-0.134;2022-12-29T01:01:44;4.09;3.75;3.01;2.00;16.05;16.02;15.86;14.96;11.49;0.80
74572;SPS30;63071;51.526;-0.134;2022-12-29T01:04:10;4.64;4.26;3.45;2.34;18.77;18.73;18.56;17.57;13.60;0.77
74572;SPS30;63071;51.526;-0.134;2022-12-29T01:06:37;4.20;3.87;3.17;2.19;17.55;17.52;17.36;16.50;12.87;0.74
74572;SPS30;63071;51.526;-0.134;2022-12-29T01:09:05;4.06;3.74;3.07;2.14;17.11;17.08;16.93;16.11;12.58;0.73
74572;SPS30;63071;51.526;-0.134;2022-12-29T01:11:50;3.98;3.67;3.00;2.08;16.67;16.64;16.49;15.68;12.23;0.73
74572;SPS30;63071;51.526;-0.134;2022-12-29T01:14:17;4.35;4.00;3.24;2.20;17.65;17.61;17.45;16.53;12.80;0.76
74572;SPS30;63071;51.526;-0.134;2022-12-29T01:16:44;4.32;3.95;3.16;2.08;16.65;16.61;16.44;15.47;11.83;0.81
74572;SPS30;63071;51.526;-0.134;2022-12-29T01:19:10;4.65;4.25;3.38;2.21;17.73;17.69;17.50;16.45;12.55;0.81
74572;SPS30;63071;51.526;-0.134;2022-12-29T01:21:36;4.96;4.54;3.64;2.41;19.34;19.29;19.10;18.01;13.81;0.80
74572;SPS30;63071;51.526;-0.134;2022-12-29T01:24:02;4.67;4.27;3.40;2.22;17.84;17.80;17.61;16.56;12.63;0.81
74572;SPS30;63071;51.526;-0.134;2022-12-29T01:26:28;4.31;3.95;3.17;2.12;16.97;16.94;16.77;15.83;12.17;0.78
74572;SPS30;63071;51.526;-0.134;2022-12-29T01:28:54;4.57;4.18;3.35;2.22;17.76;17.72;17.54;16.53;12.67;0.80
74572;SPS30;63071;51.526;-0.134;2022-12-29T01:31:19;4.59;4.19;3.34;2.18;17.50;17.46;17.27;16.24;12.39;0.82
74572;SPS30;63071;51.526;-0.134;2022-12-29T01:33:44;5.00;4.56;3.60;2.31;18.49;18.45;18.24;17.08;12.92;0.84
74572;SPS30;63071;51.526;-0.134;2022-12-29T01:36:11;4.89;4.47;3.56;2.33;18.72;18.68;18.48;17.38;13.27;0.82
74572;SPS30;63071;51.526;-0.134;2022-12-29T01:38:39;4.63;4.26;3.45;2.34;18.77;18.74;18.56;17.58;13.61;0.77
74572;SPS30;63071;51.526;-0.134;2022-12-29T01:41:06;4.37;4.02;3.27;2.24;17.95;17.92;17.75;16.84;13.08;0.75
74572;SPS30;63071;51.526;-0.134;2022-12-29T01:49:19;4.62;4.19;3.28;2.05;16.46;16.42;16.22;15.12;11.32;0.83
74572;SPS30;63071;51.526;-0.134;2022-12-29T01:51:51;4.83;4.39;3.44;2.16;17.37;17.32;17.12;15.97;11.98;0.83
74572;SPS30;63071;51.526;-0.134;2022-12-29T01:54:30;4.57;4.16;3.27;2.09;16.75;16.71;16.51;15.45;11.66;0.81
74572;SPS30;63071;51.526;-0.134;2022-12-29T01:57:06;5.05;4.59;3.58;2.24;17.96;17.92;17.70;16.49;12.33;0.82
74572;SPS30;63071;51.526;-0.134;2022-12-29T01:59:38;4.25;3.86;3.03;1.92;15.40;15.36;15.18;14.18;10.67;0.81
74572;SPS30;63071;51.526;-0.134;2022-12-29T02:02:11;5.46;4.95;3.83;2.36;18.90;18.85;18.61;17.27;12.82;0.84
74572;SPS30;63071;51.526;-0.134;2022-12-29T02:04:38;4.92;4.46;3.46;2.14;17.16;17.12;16.90;15.70;11.69;0.83
74572;SPS30;63071;51.526;-0.134;2022-12-29T02:07:12;5.00;4.53;3.52;2.17;17.45;17.40;17.18;15.97;11.88;0.83
74572;SPS30;63071;51.526;-0.134;2022-12-29T02:09:45;4.97;4.53;3.58;2.30;18.44;18.39;18.19;17.04;12.90;0.80
74572;SPS30;63071;51.526;-0.134;2022-12-29T02:12:13;5.06;4.61;3.64;2.34;18.80;18.75;18.54;17.38;13.16;0.81
74572;SPS30;63071;51.526;-0.134;2022-12-29T02:14:39;5.11;4.68;3.74;2.47;19.83;19.79;19.58;18.45;14.14;0.80
74572;SPS30;63071;51.526;-0.134;2022-12-29T02:28:28;5.05;4.61;3.65;2.35;18.87;18.82;18.61;17.45;13.24;0.81
74572;SPS30;63071;51.526;-0.134;2022-12-29T02:31:11;5.07;4.63;3.69;2.41;19.36;19.32;19.11;17.97;13.71;0.80
74572;SPS30;63071;51.526;-0.134;2022-12-29T02:36:36;4.78;4.36;3.46;2.24;17.97;17.93;17.73;16.64;12.64;0.81
74572;SPS30;63071;51.526;-0.134;2022-12-29T02:42:36;5.26;4.78;3.75;2.37;19.02;18.97;18.75;17.50;13.16;0.83
74572;SPS30;63071;51.526;-0.134;2022-12-29T02:48:29;4.88;4.42;3.42;2.10;16.86;16.82;16.60;15.41;11.43;0.85
74572;SPS30;63071;51.526;-0.134;2022-12-29T02:51:15;5.14;4.64;3.57;2.15;17.26;17.21;16.98;15.69;11.53;0.86
74572;SPS30;63071;51.526;-0.134;2022-12-29T02:53:56;5.34;4.82;3.71;2.25;18.03;17.98;17.74;16.41;12.09;0.85
74572;SPS30;63071;51.526;-0.134;2022-12-29T02:56:41;6.16;5.57;4.31;2.64;21.16;21.11;20.83;19.32;14.31;0.86
74572;SPS30;63071;51.526;-0.134;2022-12-29T02:59:07;4.82;4.39;3.47;2.24;17.97;17.92;17.72;16.62;12.60;0.81
74572;SPS30;63071;51.526;-0.134;2022-12-29T03:01:40;4.84;4.42;3.52;2.30;18.47;18.43;18.23;17.14;13.08;0.80
74572;SPS30;63071;51.526;-0.134;2022-12-29T03:07:34;5.04;4.59;3.62;2.32;18.59;18.54;18.33;17.17;12.98;0.82
74572;SPS30;63071;51.526;-0.134;2022-12-29T03:24:18;5.37;4.90;3.89;2.53;20.28;20.23;20.01;18.79;14.30;0.80
74572;SPS30;63071;51.526;-0.134;2022-12-29T03:26:48;5.00;4.58;3.69;2.46;19.75;19.70;19.51;18.42;14.17;0.79
74572;SPS30;63071;51.526;-0.134;2022-12-29T03:29:18;5.93;5.38;4.21;2.64;21.16;21.11;20.85;19.44;14.56;0.84
74572;SPS30;63071;51.526;-0.134;2022-12-29T03:31:45;5.93;5.37;4.16;2.55;20.48;20.43;20.17;18.71;13.88;0.84
74572;SPS30;63071;51.526;-0.134;2022-12-29T03:34:15;5.29;4.80;3.76;2.37;19.05;19.00;18.78;17.53;13.16;0.83
74572;SPS30;63071;51.526;-0.134;2022-12-29T03:36:50;5.43;4.93;3.85;2.42;19.41;19.36;19.12;17.83;13.37;0.82
74572;SPS30;63071;51.526;-0.134;2022-12-29T03:39:23;6.16;5.57;4.28;2.59;20.77;20.71;20.43;18.89;13.91;0.84
74572;SPS30;63071;51.526;-0.134;2022-12-29T03:41:52;5.79;5.25;4.09;2.55;20.43;20.38;20.13;18.74;13.99;0.82
74572;SPS30;63071;51.526;-0.134;2022-12-29T03:44:31;6.40;5.78;4.44;2.67;21.46;21.40;21.11;19.50;14.33;0.86
74572;SPS30;63071;51.526;-0.134;2022-12-29T03:46:58;6.47;5.83;4.45;2.64;21.20;21.14;20.84;19.19;14.00;0.87
74572;SPS30;63071;51.526;-0.134;2022-12-29T03:49:23;6.58;5.94;4.56;2.75;22.04;21.98;21.68;20.03;14.72;0.85
74572;SPS30;63071;51.526;-0.134;2022-12-29T03:51:49;5.13;4.64;3.59;2.19;17.61;17.57;17.34;16.07;11.90;0.85
74572;SPS30;63071;51.526;-0.134;2022-12-29T03:54:14;5.99;5.42;4.20;2.57;20.64;20.58;20.32;18.84;13.97;0.86
74572;SPS30;63071;51.526;-0.134;2022-12-29T03:56:40;5.80;5.25;4.07;2.50;20.08;20.03;19.77;18.36;13.63;0.87
74572;SPS30;63071;51.526;-0.134;2022-12-29T03:59:05;6.11;5.52;4.25;2.57;20.66;20.60;20.33;18.81;13.86;0.88
74572;SPS30;63071;51.526;-0.134;2022-12-29T04:01:31;6.22;5.61;4.30;2.57;20.66;20.60;20.32;18.75;13.74;0.89
74572;SPS30;63071;51.526;-0.134;2022-12-29T04:03:56;5.94;5.37;4.15;2.52;20.25;20.20;19.93;18.46;13.64;0.87
74572;SPS30;63071;51.526;-0.134;2022-12-29T04:06:21;6.30;5.69;4.39;2.67;21.41;21.35;21.06;19.50;14.40;0.87
74572;SPS30;63071;51.526;-0.134;2022-12-29T04:08:48;6.43;5.81;4.49;2.74;21.96;21.90;21.62;20.03;14.81;0.87
74572;SPS30;63071;51.526;-0.134;2022-12-29T04:11:14;5.97;5.42;4.23;2.64;21.19;21.13;20.87;19.44;14.53;0.86
74572;SPS30;63071;51.526;-0.134;2022-12-29T04:13:39;5.90;5.35;4.17;2.60;20.84;20.78;20.53;19.11;14.27;0.86
74572;SPS30;63071;51.526;-0.134;2022-12-29T04:16:06;5.71;5.18;4.05;2.54;20.40;20.35;20.10;18.74;14.04;0.85
74572;SPS30;63071;51.526;-0.134;2022-12-29T04:18:31;6.67;6.03;4.64;2.80;22.46;22.40;22.09;20.43;15.03;0.88
74572;SPS30;63071;51.526;-0.134;2022-12-29T04:20:57;6.55;5.90;4.51;2.68;21.51;21.45;21.14;19.48;14.22;0.88
74572;SPS30;63071;51.526;-0.134;2022-12-29T04:23:26;6.16;5.58;4.33;2.68;21.48;21.42;21.15;19.65;14.62;0.85
74572;SPS30;63071;51.526;-0.134;2022-12-29T04:25:52;6.15;5.57;4.34;2.69;21.61;21.55;21.28;19.80;14.76;0.85
74572;SPS30;63071;51.526;-0.134;2022-12-29T04:28:18;6.47;5.85;4.53;2.77;22.20;22.14;21.85;20.26;15.00;0.85
74572;SPS30;63071;51.526;-0.134;2022-12-29T04:30:44;6.73;6.07;4.64;2.75;22.10;22.04;21.73;20.01;14.61;0.89
74572;SPS30;63071;51.526;-0.134;2022-12-29T04:33:11;6.56;5.91;4.52;2.69;21.60;21.54;21.23;19.57;14.30;0.89
74572;SPS30;63071;51.526;-0.134;2022-12-29T04:35:37;6.24;5.65;4.36;2.65;21.29;21.23;20.95;19.40;14.34;0.87
74572;SPS30;63071;51.526;-0.134;2022-12-29T04:38:03;6.27;5.67;4.36;2.64;21.20;21.14;20.85;19.29;14.22;0.87
74572;SPS30;63071;51.526;-0.134;2022-12-29T04:40:28;6.30;5.67;4.31;2.52;20.26;20.20;19.90;18.28;13.25;0.89
74572;SPS30;63071;51.526;-0.134;2022-12-29T04:42:54;6.58;5.92;4.51;2.66;21.39;21.32;21.02;19.33;14.07;0.88
74572;SPS30;63071;51.526;-0.134;2022-12-29T04:45:20;6.20;5.60;4.33;2.63;21.14;21.08;20.80;19.27;14.24;0.84
74572;SPS30;63071;51.526;-0.134;2022-12-29T04:47:45;6.14;5.57;4.35;2.73;21.86;21.81;21.54;20.08;15.03;0.83
74572;SPS30;63071;51.526;-0.134;2022-12-29T04:50:11;6.10;5.55;4.36;2.77;22.21;22.15;21.89;20.47;15.42;0.83
74572;SPS30;63071;51.526;-0.134;2022-12-29T04:52:36;6.23;5.66;4.42;2.77;22.25;22.19;21.92;20.44;15.31;0.83
74572;SPS30;63071;51.526;-0.134;2022-12-29T04:55:02;6.11;5.55;4.33;2.71;21.72;21.66;21.40;19.94;14.91;0.85
74572;SPS30;63071;51.526;-0.134;2022-12-29T04:57:28;6.40;5.79;4.49;2.75;22.07;22.01;21.72;20.15;14.94;0.87
74572;SPS30;63071;51.526;-0.134;2022-12-29T04:59:54;6.58;5.94;4.55;2.72;21.86;21.79;21.49;19.83;14.53;0.88
74572;SPS30;63071;51.526;-0.134;2022-12-29T05:02:19;5.89;5.30;4.05;2.40;19.26;19.20;18.93;17.43;12.71;0.89
74572;SPS30;63071;51.526;-0.134;2022-12-29T05:04:45;6.50;5.85;4.45;2.62;21.02;20.96;20.65;18.98;13.79;0.90
74572;SPS30;63071;51.526;-0.134;2022-12-29T05:07:11;6.26;5.62;4.24;2.45;19.64;19.58;19.28;17.64;12.68;0.91
74572;SPS30;63071;51.526;-0.134;2022-12-29T05:09:36;6.06;5.47;4.19;2.51;20.17;20.11;19.83;18.31;13.42;0.87
74572;SPS30;63071;51.526;-0.134;2022-12-29T05:12:02;6.71;6.07;4.71;2.91;23.33;23.27;22.97;21.34;15.86;0.85
74572;SPS30;63071;51.526;-0.134;2022-12-29T05:14:28;6.29;5.70;4.45;2.77;22.26;22.20;21.93;20.42;15.26;0.84
74572;SPS30;63071;51.526;-0.134;2022-12-29T05:16:53;5.46;4.97;3.92;2.52;20.20;20.15;19.92;18.66;14.12;0.83
74572;SPS30;63071;51.526;-0.134;2022-12-29T05:19:19;5.06;4.62;3.68;2.40;19.27;19.22;19.02;17.88;13.63;0.81
74572;SPS30;63071;51.526;-0.134;2022-12-29T05:21:44;5.08;4.63;3.66;2.35;18.84;18.79;18.58;17.41;13.18;0.82
74572;SPS30;63071;51.526;-0.134;2022-12-29T05:24:09;5.92;5.41;4.30;2.80;22.45;22.40;22.16;20.82;15.85;0.81
74572;SPS30;63071;51.526;-0.134;2022-12-29T05:26:35;5.26;4.82;3.88;2.59;20.77;20.72;20.52;19.37;14.91;0.79
74572;SPS30;63071;51.526;-0.134;2022-12-29T05:29:01;5.14;4.71;3.79;2.54;20.33;20.29;20.09;18.97;14.60;0.79
74572;SPS30;63071;51.526;-0.134;2022-12-29T05:31:26;5.18;4.73;3.77;2.46;19.74;19.70;19.49;18.32;13.97;0.81
74572;SPS30;63071;51.526;-0.134;2022-12-29T05:33:52;5.03;4.59;3.63;2.35;18.85;18.81;18.60;17.45;13.25;0.82
74572;SPS30;63071;51.526;-0.134;2022-12-29T05:36:17;5.35;4.87;3.84;2.46;19.70;19.65;19.43;18.19;13.74;0.83
74572;SPS30;63071;51.526;-0.134;2022-12-29T05:38:43;5.21;4.75;3.78;2.47;19.79;19.74;19.53;18.36;13.99;0.80
74572;SPS30;63071;51.526;-0.134;2022-12-29T05:41:08;5.75;5.24;4.15;2.67;21.43;21.38;21.14;19.82;15.02;0.82
74572;SPS30;63071;51.526;-0.134;2022-12-29T05:43:34;5.17;4.72;3.74;2.41;19.36;19.32;19.10;17.92;13.60;0.82
74572;SPS30;63071;51.526;-0.134;2022-12-29T05:45:59;5.22;4.76;3.77;2.43;19.52;19.47;19.26;18.06;13.70;0.84
74572;SPS30;63071;51.526;-0.134;2022-12-29T05:48:25;5.59;5.06;3.94;2.45;19.62;19.57;19.33;17.98;13.40;0.87
74572;SPS30;63071;51.526;-0.134;2022-12-29T05:50:51;5.69;5.15;4.00;2.47;19.83;19.78;19.53;18.15;13.50;0.85
74572;SPS30;63071;51.526;-0.134;2022-12-29T05:53:17;5.02;4.57;3.62;2.33;18.67;18.63;18.42;17.27;13.08;0.82
74572;SPS30;63071;51.526;-0.134;2022-12-29T05:55:44;4.87;4.43;3.48;2.22;17.80;17.76;17.55;16.41;12.38;0.82
74572;SPS30;63071;51.526;-0.134;2022-12-29T05:58:11;5.01;4.56;3.58;2.26;18.17;18.12;17.91;16.73;12.58;0.84
74572;SPS30;63071;51.526;-0.134;2022-12-29T06:00:37;4.51;4.10;3.22;2.05;16.43;16.39;16.20;15.14;11.41;0.85
74572;SPS30;63071;51.526;-0.134;2022-12-29T06:03:03;4.64;4.22;3.31;2.10;16.81;16.77;16.57;15.48;11.64;0.85
74572;SPS30;63071;51.526;-0.134;2022-12-29T06:05:29;4.35;3.95;3.10;1.96;15.72;15.68;15.49;14.47;10.88;0.85
74572;SPS30;63071;51.526;-0.134;2022-12-29T06:07:54;4.74;4.30;3.36;2.09;16.79;16.74;16.54;15.40;11.50;0.86
74572;SPS30;63071;51.526;-0.134;2022-12-29T06:10:20;4.54;4.13;3.26;2.09;16.74;16.70;16.51;15.46;11.69;0.85
74572;SPS30;63071;51.526;-0.134;2022-12-29T06:12:45;4.37;3.99;3.16;2.04;16.35;16.31;16.13;15.13;11.48;0.84
74572;SPS30;63071;51.526;-0.134;2022-12-29T06:15:12;3.81;3.50;2.83;1.91;15.29;15.26;15.11;14.30;11.04;0.80
74572;SPS30;63071;51.526;-0.134;2022-12-29T06:17:38;3.65;3.35;2.69;1.80;14.44;14.40;14.26;13.47;10.37;0.80
74572;SPS30;63071;51.526;-0.134;2022-12-29T06:20:04;4.61;4.21;3.35;2.18;17.47;17.43;17.24;16.20;12.33;0.81
74572;SPS30;63071;51.526;-0.134;2022-12-29T06:22:30;3.96;3.61;2.85;1.84;14.77;14.73;14.57;13.66;10.36;0.82
74572;SPS30;63071;51.526;-0.134;2022-12-29T06:24:56;3.85;3.50;2.74;1.73;13.84;13.81;13.64;12.73;9.56;0.84
74572;SPS30;63071;51.526;-0.134;2022-12-29T06:27:21;4.11;3.72;2.90;1.80;14.42;14.38;14.20;13.21;9.85;0.84
74572;SPS30;63071;51.526;-0.134;2022-12-29T06:29:47;3.81;3.45;2.68;1.66;13.30;13.27;13.10;12.18;9.06;0.85
74572;SPS30;63071;51.526;-0.134;2022-12-29T06:32:12;3.53;3.22;2.56;1.66;13.34;13.31;13.16;12.36;9.41;0.81
74572;SPS30;63071;51.526;-0.134;2022-12-29T06:34:38;3.56;3.26;2.62;1.75;14.01;13.98;13.84;13.07;10.05;0.79
74572;SPS30;63071;51.526;-0.134;2022-12-29T06:37:03;3.41;3.12;2.51;1.68;13.43;13.40;13.27;12.52;9.63;0.78
74572;SPS30;63071;51.526;-0.134;2022-12-29T06:39:29;3.45;3.16;2.53;1.67;13.40;13.37;13.23;12.47;9.55;0.78
74572;SPS30;63071;51.526;-0.134;2022-12-29T06:41:54;3.42;3.13;2.52;1.69;13.51;13.48;13.35;12.61;9.70;0.79
74572;SPS30;63071;51.526;-0.134;2022-12-29T06:44:20;3.43;3.14;2.51;1.66;13.32;13.29;13.15;12.40;9.50;0.80
74572;SPS30;63071;51.526;-0.134;2022-12-29T06:46:46;3.24;2.96;2.35;1.54;12.35;12.33;12.19;11.47;8.75;0.81
74572;SPS30;63071;51.526;-0.134;2022-12-29T06:49:12;3.55;3.24;2.55;1.63;13.05;13.01;12.86;12.04;9.09;0.83
74572;SPS30;63071;51.526;-0.134;2022-12-29T06:51:38;3.32;3.03;2.40;1.55;12.44;12.41;12.27;11.51;8.73;0.82
74572;SPS30;63071;51.526;-0.134;2022-12-29T06:54:03;2.95;2.71;2.19;1.48;11.90;11.88;11.76;11.14;8.62;0.79
74572;SPS30;63071;51.526;-0.134;2022-12-29T06:56:29;3.35;3.08;2.48;1.67;13.42;13.39;13.27;12.55;9.69;0.80
74572;SPS30;63071;51.526;-0.134;2022-12-29T06:58:54;3.25;2.98;2.41;1.62;13.00;12.97;12.84;12.15;9.37;0.79
74572;SPS30;63071;51.526;-0.134;2022-12-29T07:01:20;2.74;2.51;2.01;1.32;10.60;10.57;10.46;9.85;7.54;0.80
74572;SPS30;63071;51.526;-0.134;2022-12-29T07:03:45;2.95;2.71;2.19;1.48;11.86;11.84;11.73;11.10;8.58;0.79
74572;SPS30;63071;51.526;-0.134;2022-12-29T07:06:10;3.11;2.85;2.30;1.55;12.45;12.42;12.30;11.64;8.99;0.78
74572;SPS30;63071;51.526;-0.134;2022-12-29T07:08:36;2.79;2.56;2.07;1.40;11.26;11.24;11.13;10.54;8.15;0.78
74572;SPS30;63071;51.526;-0.134;2022-12-29T07:11:01;2.72;2.50;2.02;1.37;10.95;10.93;10.83;10.25;7.92;0.79
74572;SPS30;63071;51.526;-0.134;2022-12-29T07:13:27;2.89;2.65;2.13;1.42;11.35;11.33;11.21;10.58;8.13;0.79
74572;SPS30;63071;51.526;-0.134;2022-12-29T07:15:52;2.68;2.46;2.01;1.38;11.06;11.03;10.93;10.38;8.07;0.77
74572;SPS30;63071;51.526;-0.134;2022-12-29T07:18:18;2.30;2.13;1.76;1.24;9.94;9.93;9.85;9.39;7.38;0.75
74572;SPS30;63071;51.526;-0.134;2022-12-29T07:20:43;2.01;1.86;1.54;1.09;8.77;8.75;8.68;8.29;6.52;0.76
74572;SPS30;63071;51.526;-0.134;2022-12-29T07:23:09;2.41;2.24;1.86;1.33;10.66;10.65;10.56;10.10;7.98;0.76
74572;SPS30;63071;51.526;-0.134;2022-12-29T07:25:34;2.17;2.01;1.65;1.16;9.26;9.25;9.17;8.74;6.84;0.79
74572;SPS30;63071;51.526;-0.134;2022-12-29T07:28:01;2.51;2.31;1.87;1.27;10.21;10.19;10.10;9.57;7.42;0.81
74572;SPS30;63071;51.526;-0.134;2022-12-29T07:30:27;2.65;2.44;1.98;1.35;10.82;10.80;10.70;10.14;7.87;0.80
74572;SPS30;63071;51.526;-0.134;2022-12-29T07:32:53;2.43;2.23;1.80;1.21;9.72;9.70;9.61;9.09;7.01;0.81
74572;SPS30;63071;51.526;-0.134;2022-12-29T07:35:18;2.50;2.29;1.84;1.22;9.78;9.76;9.66;9.11;6.99;0.84
74572;SPS30;63071;51.526;-0.134;2022-12-29T07:37:44;2.55;2.35;1.90;1.28;10.25;10.23;10.14;9.59;7.41;0.81
74572;SPS30;63071;51.526;-0.134;2022-12-29T07:40:09;2.15;1.99;1.64;1.15;9.25;9.23;9.15;8.73;6.85;0.77
74572;SPS30;63071;51.526;-0.134;2022-12-29T07:42:36;1.90;1.76;1.48;1.07;8.60;8.58;8.52;8.17;6.48;0.74
74572;SPS30;63071;51.526;-0.134;2022-12-29T07:45:01;2.19;2.05;1.75;1.32;10.59;10.58;10.51;10.15;8.15;0.72
74572;SPS30;63071;51.526;-0.134;2022-12-29T07:47:27;2.03;1.91;1.63;1.23;9.84;9.83;9.76;9.42;7.57;0.73
74572;SPS30;63071;51.526;-0.134;2022-12-29T07:49:53;2.15;2.01;1.70;1.26;10.09;10.08;10.01;9.64;7.70;0.74
74572;SPS30;63071;51.526;-0.134;2022-12-29T07:52:18;1.84;1.72;1.45;1.06;8.47;8.46;8.40;8.06;6.41;0.74
74572;SPS30;63071;51.526;-0.134;2022-12-29T07:54:43;1.83;1.70;1.42;1.02;8.19;8.18;8.11;7.77;6.15;0.75
74572;SPS30;63071;51.526;-0.134;2022-12-29T07:57:09;2.01;1.86;1.54;1.10;8.78;8.76;8.69;8.30;6.54;0.76
74572;SPS30;63071;51.526;-0.134;2022-12-29T07:59:34;2.03;1.88;1.55;1.08;8.68;8.66;8.59;8.18;6.41;0.76
74572;SPS30;63071;51.526;-0.134;2022-12-29T08:02:00;1.80;1.67;1.38;0.97;7.75;7.73;7.67;7.31;5.73;0.75
74572;SPS30;63071;51.526;-0.134;2022-12-29T08:04:25;1.87;1.74;1.45;1.04;8.31;8.30;8.23;7.88;6.22;0.74
74572;SPS30;63071;51.526;-0.134;2022-12-29T08:06:51;1.86;1.73;1.46;1.06;8.50;8.49;8.43;8.09;6.42;0.74
74572;SPS30;63071;51.526;-0.134;2022-12-29T08:09:16;1.94;1.80;1.50;1.07;8.58;8.57;8.50;8.13;6.42;0.76
74572;SPS30;63071;51.526;-0.134;2022-12-29T08:11:42;2.03;1.87;1.54;1.07;8.60;8.58;8.51;8.10;6.34;0.77
74572;SPS30;63071;51.526;-0.134;2022-12-29T08:14:08;2.13;1.96;1.59;1.08;8.65;8.64;8.55;8.11;6.28;0.79
74572;SPS30;63071;51.526;-0.134;2022-12-29T08:16:34;2.09;1.92;1.54;1.03;8.27;8.25;8.17;7.71;5.94;0.79
74572;SPS30;63071;51.526;-0.134;2022-12-29T08:18:59;2.20;2.02;1.63;1.09;8.73;8.71;8.62;8.14;6.27;0.79
74572;SPS30;63071;51.526;-0.134;2022-12-29T08:21:26;1.89;1.73;1.39;0.93;7.45;7.44;7.36;6.95;5.35;0.80
74572;SPS30;63071;51.526;-0.134;2022-12-29T08:23:52;2.49;2.29;1.85;1.24;9.98;9.96;9.86;9.33;7.20;0.80
74572;SPS30;63071;51.526;-0.134;2022-12-29T08:26:18;2.59;2.37;1.91;1.28;10.25;10.23;10.13;9.57;7.37;0.81
74572;SPS30;63071;51.526;-0.134;2022-12-29T08:28:43;2.31;2.11;1.70;1.14;9.10;9.08;8.99;8.49;6.53;0.81
74572;SPS30;63071;51.526;-0.134;2022-12-29T08:31:09;1.94;1.78;1.44;0.97;7.77;7.75;7.68;7.26;5.61;0.81
74572;SPS30;63071;51.526;-0.134;2022-12-29T08:33:35;2.07;1.90;1.55;1.07;8.55;8.53;8.45;8.03;6.24;0.79
74572;SPS30;63071;51.526;-0.134;2022-12-29T08:36:01;1.80;1.66;1.36;0.95;7.60;7.59;7.52;7.16;5.59;0.78
74572;SPS30;63071;51.526;-0.134;2022-12-29T08:38:27;2.62;2.42;1.99;1.39;11.11;11.09;11.00;10.47;8.19;0.77
74572;SPS30;63071;51.526;-0.134;2022-12-29T08:40:53;1.81;1.68;1.38;0.97;7.76;7.75;7.68;7.32;5.74;0.76
74572;SPS30;63071;51.526;-0.134;2022-12-29T08:43:19;2.02;1.87;1.55;1.09;8.75;8.73;8.66;8.26;6.49;0.76
74572;SPS30;63071;51.526;-0.134;2022-12-29T08:45:45;2.12;1.95;1.59;1.10;8.81;8.79;8.71;8.28;6.45;0.77
74572;SPS30;63071;51.526;-0.134;2022-12-29T08:48:10;2.20;2.02;1.64;1.12;9.00;8.98;8.90;8.44;6.55;0.77
74572;SPS30;63071;51.526;-0.134;2022-12-29T08:50:35;2.04;1.88;1.53;1.05;8.43;8.41;8.34;7.91;6.16;0.77
74572;SPS30;63071;51.526;-0.134;2022-12-29T08:53:01;2.08;1.92;1.58;1.11;8.90;8.88;8.81;8.39;6.58;0.75
74572;SPS30;63071;51.526;-0.134;2022-12-29T08:55:26;2.01;1.86;1.52;1.05;8.38;8.37;8.29;7.88;6.14;0.75
74572;SPS30;63071;51.526;-0.134;2022-12-29T08:57:52;2.69;2.47;1.99;1.33;10.64;10.62;10.52;9.93;7.64;0.78
74572;SPS30;63071;51.526;-0.134;2022-12-29T09:00:17;1.84;1.69;1.37;0.93;7.47;7.45;7.38;7.00;5.42;0.76
74572;SPS30;63071;51.526;-0.134;2022-12-29T09:02:43;1.69;1.56;1.28;0.90;7.19;7.18;7.12;6.78;5.31;0.74
74572;SPS30;63071;51.526;-0.134;2022-12-29T09:05:09;1.89;1.74;1.42;0.97;7.80;7.78;7.71;7.32;5.69;0.76
74572;SPS30;63071;51.526;-0.134;2022-12-29T09:07:35;1.98;1.82;1.47;1.00;7.99;7.97;7.90;7.48;5.78;0.77
74572;SPS30;63071;51.526;-0.134;2022-12-29T09:10:01;2.05;1.88;1.51;1.01;8.12;8.10;8.02;7.58;5.84;0.78
74572;SPS30;63071;51.526;-0.134;2022-12-29T09:12:26;2.42;2.22;1.78;1.19;9.52;9.50;9.40;8.87;6.82;0.79
74572;SPS30;63071;51.526;-0.134;2022-12-29T09:14:52;2.02;1.85;1.48;0.97;7.81;7.79;7.71;7.26;5.56;0.81
74572;SPS30;63071;51.526;-0.134;2022-12-29T09:17:17;1.91;1.76;1.42;0.95;7.64;7.62;7.55;7.13;5.50;0.79
74572;SPS30;63071;51.526;-0.134;2022-12-29T09:20:02;1.70;1.56;1.27;0.87;6.95;6.94;6.87;6.52;5.06;0.78
74572;SPS30;63071;51.526;-0.134;2022-12-29T09:22:28;1.95;1.80;1.47;1.01;8.12;8.11;8.04;7.64;5.95;0.77
74572;SPS30;63071;51.526;-0.134;2022-12-29T09:24:53;1.80;1.66;1.36;0.95;7.62;7.60;7.54;7.18;5.61;0.77
74572;SPS30;63071;51.526;-0.134;2022-12-29T09:27:19;1.67;1.55;1.28;0.91;7.32;7.30;7.24;6.92;5.45;0.75
74572;SPS30;63071;51.526;-0.134;2022-12-29T09:29:44;1.60;1.49;1.25;0.90;7.23;7.22;7.17;6.87;5.44;0.73
74572;SPS30;63071;51.526;-0.134;2022-12-29T09:32:09;1.75;1.62;1.36;0.99;7.92;7.90;7.85;7.52;5.97;0.73
74572;SPS30;63071;51.526;-0.134;2022-12-29T09:34:35;1.58;1.47;1.23;0.88;7.06;7.05;6.99;6.69;5.29;0.74
74572;SPS30;63071;51.526;-0.134;2022-12-29T09:37:00;1.82;1.69;1.40;1.00;8.03;8.01;7.95;7.60;6.00;0.74
74572;SPS30;63071;51.526;-0.134;2022-12-29T09:39:26;1.75;1.62;1.36;0.99;7.90;7.88;7.83;7.50;5.95;0.73
74572;SPS30;63071;51.526;-0.134;2022-12-29T09:41:52;1.85;1.72;1.46;1.07;8.60;8.59;8.53;8.20;6.54;0.71
74572;SPS30;63071;51.526;-0.134;2022-12-29T09:47:05;1.34;1.25;1.05;0.77;6.20;6.19;6.14;5.90;4.70;0.72
74572;SPS30;63071;51.526;-0.134;2022-12-29T09:49:45;1.73;1.61;1.35;0.99;7.89;7.88;7.82;7.50;5.95;0.73
74572;SPS30;63071;51.526;-0.134;2022-12-29T09:52:25;1.40;1.30;1.09;0.78;6.28;6.27;6.23;5.97;4.72;0.74
74572;SPS30;63071;51.526;-0.134;2022-12-29T09:55:08;1.89;1.77;1.50;1.11;8.87;8.86;8.80;8.47;6.76;0.71
74572;SPS30;63071;51.526;-0.134;2022-12-29T09:57:53;1.76;1.64;1.39;1.03;8.25;8.24;8.18;7.87;6.29;0.70
74572;SPS30;63071;51.526;-0.134;2022-12-29T10:00:25;1.62;1.51;1.27;0.92;7.39;7.38;7.33;7.03;5.59;0.71
74572;SPS30;63071;51.526;-0.134;2022-12-29T10:03:20;1.80;1.68;1.42;1.05;8.40;8.39;8.33;8.01;6.39;0.70
74572;SPS30;63071;51.526;-0.134;2022-12-29T10:08:37;1.34;1.25;1.04;0.76;6.07;6.06;6.02;5.77;4.57;0.70
74572;SPS30;63071;51.526;-0.134;2022-12-29T10:17:10;1.79;1.67;1.40;1.02;8.18;8.17;8.11;7.79;6.19;0.70